Salida, CO

7:16 AM MDT on June 24, 2017 (GMT -0600)
CR 141 | | Change Station

Elev 7195 ft 38.54 °N, 106.02 °W | Updated 2 seconds ago

Overcast
Overcast
55.9 °F
Feels Like 55.9 °F
N
0.0
Wind Variable Wind from NE
Gusts 2.0 mph

Today
High -- | Low -- °F
--% Chance of Precip.
Yesterday
High -- | Low -- °F
Precip. -- in
Pressure 30.47 in
Visibility 10.0 miles
Clouds Overcast 2900 ft
Dew Point 48 °F
Humidity 73%
Rainfall 0.00 in
Snow Depth Not available.
5:40 AM 8:32 PM
New Moon, 0% visible
METAR KANK 241315Z AUTO 00000KT 10SM OVC029 13/08 A3047 RMK AO1 T01270077
Pressure 30.47 in
Visibility 10.0 miles
Clouds Overcast 2900 ft
Dew Point 48 °F
Humidity 73%
Rainfall 0.00 in
Snow Depth Not available.
5:40 AM 8:32 PM
New Moon, 0% visible
METAR KANK 241315Z AUTO 00000KT 10SM OVC029 13/08 A3047 RMK AO1 T01270077

Get Severe Weather Alerts

Thanks for signing up!

Be on the lookout for a verification email in your inbox.

You'll start receiving the daily forecast at 6 AM.

×

10-Day Weather Forecast

Almanac

Astronomy

Jun. 24, 2017 Rise Set
Actual Time
Civil Twilight
Nautical Twilight
Astronomical Twilight
Moon
Length of Visible Light
Length of Day
Tomorrow will be .
, % of the Moon is Illuminated

Today's Extremes

State Highs State Lows

Community

WunderPhotos

Category 6

Welcome to Category 6. This is the collective home for Weather Underground's featured writeups by Dr. Jeff Masters (right), Bob Henson (left), Chris Burt, and other regular contributors.

Nearby

Air Quality

  Air Quality AQ Index Pollutant
Not available.

Snow Depth

Station Depth Elevation

Earthquake Activity

City Distance Mag. Time & Date
Minimum magnitude displayed is 2.5.

Coastal Water Temperatures

Place Temperature

Stations

Nearby Weather Stations

Station Location Temp. Windchill Dew Point Humidity Wind Precip. Elev Updated Type
                   

Watches & Warnings

There are currently no watches in effect.